createdAt,value
2023-04-02T00:02:02.988Z,97122.50
2023-04-02T00:04:52.471Z,97124.63
2023-04-02T00:07:46.440Z,97123.31
2023-04-02T00:10:33.641Z,97122.41
2023-04-02T00:13:07.770Z,97129.56
2023-04-02T00:15:39.290Z,97130.09
2023-04-02T00:18:43.997Z,97119.75
2023-04-02T00:21:16.936Z,97138.19
2023-04-02T00:24:04.920Z,97131.88
2023-04-02T00:26:37.369Z,97135.72
2023-04-02T00:29:12.191Z,97133.31
2023-04-02T00:31:47.207Z,97138.41
2023-04-02T00:34:21.844Z,97125.09
2023-04-02T00:36:54.552Z,97137.31
2023-04-02T00:39:29.761Z,97135.81
2023-04-02T00:42:06.125Z,97135.53
2023-04-02T00:44:43.441Z,97135.44
2023-04-02T00:47:20.520Z,97141.16
2023-04-02T00:50:01.351Z,97141.97
2023-04-02T00:52:44.155Z,97142.59
2023-04-02T00:55:18.198Z,97140.81
2023-04-02T00:57:50.711Z,97135.09
2023-04-02T01:00:32.306Z,97141.34
2023-04-02T01:03:39.335Z,97137.94
2023-04-02T01:06:12.031Z,97148.41
2023-04-02T01:08:57.136Z,97153.63
2023-04-02T01:11:36.218Z,97151.06
2023-04-02T01:14:11.164Z,97153.03
2023-04-02T01:16:47.707Z,97153.31
2023-04-02T01:19:49.610Z,97154.56
2023-04-02T01:22:35.419Z,97163.03
2023-04-02T01:25:14.525Z,97152.56
2023-04-02T01:27:54.051Z,97159.81
2023-04-02T01:30:39.762Z,97161.56
2023-04-02T01:33:27.396Z,97157.69
2023-04-02T01:36:06.013Z,97162.31
2023-04-02T01:38:40.254Z,97163.16
2023-04-02T01:41:18.246Z,97168.56
2023-04-02T01:43:49.658Z,97156.34
2023-04-02T01:46:32.343Z,97167.13
2023-04-02T01:49:04.963Z,97166.41
2023-04-02T01:51:36.766Z,97162.03
2023-04-02T01:54:07.015Z,97162.28
2023-04-02T01:56:38.358Z,97160.69
2023-04-02T01:59:11.530Z,97156.38
2023-04-02T02:01:49.661Z,97156.13
2023-04-02T02:04:19.558Z,97165.72
2023-04-02T02:06:55.099Z,97169.16
2023-04-02T02:09:37.811Z,97171.91
2023-04-02T02:12:21.877Z,97171.09
2023-04-02T02:14:54.790Z,97177.13
2023-04-02T02:17:28.710Z,97175.78
2023-04-02T02:19:58.947Z,97183.03
2023-04-02T02:22:31.745Z,97182.69
2023-04-02T02:25:03.168Z,97178.56
2023-04-02T02:27:57.540Z,97182.72
2023-04-02T02:30:29.809Z,97183.19
2023-04-02T02:33:03.980Z,97178.47
2023-04-02T02:35:37.612Z,97184.47
2023-04-02T02:39:05.389Z,97186.25
2023-04-02T02:41:38.666Z,97186.78
2023-04-02T02:44:12.933Z,97188.38
2023-04-02T02:46:46.195Z,97194.81
2023-04-02T02:49:17.973Z,97194.97
2023-04-02T02:51:49.260Z,97196.44
2023-04-02T02:54:19.953Z,97200.25
2023-04-02T02:56:51.161Z,97203.47
2023-04-02T02:59:21.097Z,97201.75
2023-04-02T03:01:49.431Z,97212.59
2023-04-02T03:04:23.025Z,97211.16
2023-04-02T03:06:52.842Z,97216.78
2023-04-02T03:09:27.540Z,97209.94
2023-04-02T03:12:00.040Z,97212.66
2023-04-02T03:14:33.047Z,97218.63
2023-04-02T03:17:06.132Z,97215.53
2023-04-02T03:19:40.000Z,97219.44
2023-04-02T03:22:12.726Z,97222.59
2023-04-02T03:24:48.840Z,97221.94
2023-04-02T03:27:20.144Z,97220.03
2023-04-02T03:29:59.912Z,97223.25
2023-04-02T03:32:31.598Z,97229.00
2023-04-02T03:35:04.876Z,97230.28
2023-04-02T03:37:36.439Z,97235.78
2023-04-02T03:40:10.626Z,97237.97
2023-04-02T03:42:42.560Z,97235.78
2023-04-02T03:45:16.408Z,97243.50
2023-04-02T03:47:46.793Z,97250.63
2023-04-02T03:50:20.726Z,97246.59
2023-04-02T03:52:49.383Z,97249.66
2023-04-02T03:55:21.592Z,97254.19
2023-04-02T03:57:57.062Z,97250.41
2023-04-02T04:00:31.004Z,97252.00
2023-04-02T04:03:03.594Z,97261.41
2023-04-02T04:05:36.312Z,97256.38
2023-04-02T04:08:06.772Z,97264.88
2023-04-02T04:10:36.382Z,97257.97
2023-04-02T04:13:07.321Z,97267.88
2023-04-02T04:15:38.629Z,97265.44
2023-04-02T04:18:11.680Z,97268.44
2023-04-02T04:20:46.859Z,97267.19
2023-04-02T04:23:25.893Z,97272.34
2023-04-02T04:25:59.400Z,97283.50
2023-04-02T04:28:32.797Z,97284.66
2023-04-02T04:31:04.300Z,97285.47
2023-04-02T04:33:40.090Z,97289.28
2023-04-02T04:36:28.955Z,97285.00
2023-04-02T04:39:00.795Z,97291.81
2023-04-02T04:41:32.164Z,97294.00
2023-04-02T04:44:03.792Z,97294.53
2023-04-02T04:46:36.274Z,97296.38
2023-04-02T04:49:10.006Z,97303.41
2023-04-02T04:51:43.866Z,97301.81
2023-04-02T04:54:14.047Z,97305.94
2023-04-02T04:56:46.662Z,97303.91
2023-04-02T04:59:18.794Z,97316.00
2023-04-02T05:01:51.536Z,97317.84
2023-04-02T05:04:23.522Z,97314.16
2023-04-02T05:06:55.845Z,97313.69
2023-04-02T05:09:28.603Z,97324.28
2023-04-02T05:12:04.629Z,97313.25
2023-04-02T05:14:36.774Z,97318.94
2023-04-02T05:17:07.394Z,97330.69
2023-04-02T05:19:39.739Z,97333.91
2023-04-02T05:22:18.040Z,97342.06
2023-04-02T05:24:54.970Z,97340.78
2023-04-02T05:27:30.279Z,97340.53
2023-04-02T05:30:03.746Z,97354.19
2023-04-02T05:32:35.392Z,97350.34
2023-04-02T05:35:06.190Z,97359.44
2023-04-02T05:37:36.138Z,97359.91
2023-04-02T05:40:14.736Z,97366.38
2023-04-02T05:42:45.118Z,97363.63
2023-04-02T05:45:22.084Z,97374.69
2023-04-02T05:47:51.936Z,97378.75
2023-04-02T05:50:26.216Z,97374.03
2023-04-02T05:53:02.238Z,97385.28
2023-04-02T05:55:36.221Z,97380.50
2023-04-02T05:58:33.965Z,97397.75
2023-04-02T06:01:07.798Z,97388.91
2023-04-02T06:03:44.920Z,97393.25
2023-04-02T06:06:19.505Z,97402.88
2023-04-02T06:08:54.091Z,97399.28
2023-04-02T06:11:26.241Z,97405.75
2023-04-02T06:13:54.835Z,97415.72
2023-04-02T06:16:28.086Z,97423.69
2023-04-02T06:18:56.769Z,97431.94
2023-04-02T06:21:25.016Z,97430.53
2023-04-02T06:23:57.473Z,97443.78
2023-04-02T06:26:29.178Z,97439.97
2023-04-02T06:29:02.669Z,97452.13
2023-04-02T06:31:37.100Z,97461.38
2023-04-02T06:34:07.250Z,97470.66
2023-04-02T06:36:35.836Z,97472.78
2023-04-02T06:39:08.606Z,97478.72
2023-04-02T06:41:36.825Z,97487.34
2023-04-02T06:44:09.940Z,97488.78
2023-04-02T06:46:42.122Z,97495.25
2023-04-02T06:49:22.287Z,97498.63
2023-04-02T06:51:53.185Z,97505.28
2023-04-02T06:54:23.626Z,97509.34
2023-04-02T06:56:53.839Z,97522.25
2023-04-02T06:59:22.520Z,97530.25
2023-04-02T07:01:53.550Z,97521.09
2023-04-02T07:04:22.253Z,97536.03
2023-04-02T07:06:51.096Z,97536.63
2023-04-02T07:09:19.856Z,97529.31
2023-04-02T07:11:49.800Z,97548.09
2023-04-02T07:14:18.361Z,97547.97
2023-04-02T07:16:46.746Z,97553.78
2023-04-02T07:19:19.793Z,97554.78
2023-04-02T07:21:48.183Z,97558.59
2023-04-02T07:24:16.695Z,97567.66
2023-04-02T07:26:46.062Z,97575.47
2023-04-02T07:29:17.653Z,97570.94
2023-04-02T07:31:45.720Z,97571.66
2023-04-02T07:34:14.627Z,97588.72
2023-04-02T07:36:42.935Z,97588.66
2023-04-02T07:39:12.302Z,97597.09
2023-04-02T07:41:54.286Z,97599.94
2023-04-02T07:44:24.423Z,97608.59
2023-04-02T07:46:52.785Z,97608.25
2023-04-02T07:49:21.517Z,97613.31
2023-04-02T07:51:50.730Z,97617.13
2023-04-02T07:54:19.251Z,97620.84
2023-04-02T07:56:47.692Z,97628.28
2023-04-02T07:59:16.511Z,97638.44
2023-04-02T08:01:46.169Z,97638.94
2023-04-02T08:04:18.880Z,97643.69
2023-04-02T08:06:48.060Z,97640.53
2023-04-02T08:09:17.300Z,97651.84
2023-04-02T08:11:46.696Z,97654.66
2023-04-02T08:14:15.686Z,97665.06
2023-04-02T08:16:49.710Z,97666.59
2023-04-02T08:19:18.436Z,97670.97
2023-04-02T08:21:48.205Z,97681.59
2023-04-02T08:24:19.123Z,97681.75
2023-04-02T08:26:47.760Z,97680.78
2023-04-02T08:29:16.982Z,97689.16
2023-04-02T08:31:45.228Z,97691.94
2023-04-02T08:34:15.553Z,97700.47
2023-04-02T08:36:46.085Z,97703.91
2023-04-02T08:39:14.924Z,97707.31
2023-04-02T08:41:46.933Z,97707.28
2023-04-02T08:44:28.214Z,97715.78
2023-04-02T08:47:00.165Z,97724.09
2023-04-02T08:49:32.877Z,97725.84
2023-04-02T08:52:01.795Z,97725.72
2023-04-02T08:54:32.464Z,97733.56
2023-04-02T08:57:03.401Z,97729.47
2023-04-02T08:59:36.116Z,97733.75
2023-04-02T09:02:16.607Z,97748.09
2023-04-02T09:04:47.116Z,97746.88
2023-04-02T09:07:17.600Z,97748.38
2023-04-02T09:09:48.700Z,97755.72
2023-04-02T09:12:20.436Z,97760.13
2023-04-02T09:14:57.345Z,97756.97
2023-04-02T09:17:27.186Z,97762.50
2023-04-02T09:19:59.151Z,97767.25
2023-04-02T09:22:29.254Z,97774.84
2023-04-02T09:24:59.653Z,97773.56
2023-04-02T09:27:30.737Z,97786.19
2023-04-02T09:30:01.013Z,97786.53
2023-04-02T09:32:42.227Z,97780.13
2023-04-02T09:35:36.585Z,97787.25
2023-04-02T09:38:17.766Z,97795.34
2023-04-02T09:40:47.997Z,97794.38
2023-04-02T09:43:18.573Z,97798.38
2023-04-02T09:45:58.099Z,97803.72
2023-04-02T09:48:30.397Z,97805.28
2023-04-02T09:51:09.364Z,97810.13
2023-04-02T09:53:41.116Z,97813.63
2023-04-02T09:56:16.677Z,97823.13
2023-04-02T09:58:46.022Z,97818.13
2023-04-02T10:01:29.527Z,97817.19
2023-04-02T10:03:59.416Z,97823.94
2023-04-02T10:06:31.589Z,97827.81
2023-04-02T10:08:59.999Z,97835.41
2023-04-02T10:11:45.380Z,97839.53
2023-04-02T10:14:20.486Z,97842.84
2023-04-02T10:16:52.003Z,97852.75
2023-04-02T10:19:26.502Z,97851.72
2023-04-02T10:21:57.219Z,97861.78
2023-04-02T10:24:28.777Z,97861.22
2023-04-02T10:27:07.634Z,97864.06
2023-04-02T10:29:45.144Z,97853.66
2023-04-02T10:32:17.878Z,97860.47
2023-04-02T10:34:52.208Z,97872.59
2023-04-02T10:37:58.764Z,97873.03
2023-04-02T10:40:30.028Z,97872.72
2023-04-02T10:43:25.678Z,97875.09
2023-04-02T10:45:56.124Z,97878.69
2023-04-02T10:48:28.845Z,97885.59
2023-04-02T10:51:01.629Z,97888.34
2023-04-02T10:53:35.037Z,97899.13
2023-04-02T10:56:05.788Z,97899.34
2023-04-02T10:58:36.697Z,97886.44
2023-04-02T11:01:09.141Z,97900.69
2023-04-02T11:03:40.471Z,97894.84
2023-04-02T11:06:15.576Z,97906.19
2023-04-02T11:08:48.124Z,97916.72
2023-04-02T11:11:18.808Z,97917.53
2023-04-02T11:13:54.006Z,97922.00
2023-04-02T11:16:22.556Z,97927.94
2023-04-02T11:19:23.834Z,97930.75
2023-04-02T11:21:59.348Z,97939.50
2023-04-02T11:24:44.828Z,97932.97
2023-04-02T11:27:23.718Z,97937.56
2023-04-02T11:29:54.503Z,97947.09
2023-04-02T11:32:35.158Z,97948.38
2023-04-02T11:35:29.192Z,97949.81
2023-04-02T11:37:59.025Z,97954.25
2023-04-02T11:40:54.808Z,97955.41
2023-04-02T11:43:52.168Z,97953.47
2023-04-02T11:46:42.597Z,97964.69
2023-04-02T11:49:36.761Z,97961.09
2023-04-02T11:52:19.578Z,97964.84
2023-04-02T11:54:48.182Z,97972.53
2023-04-02T11:57:28.453Z,97967.25
2023-04-02T12:00:14.376Z,97967.44
2023-04-02T12:02:55.504Z,97969.22
2023-04-02T12:05:27.632Z,97969.91
2023-04-02T12:08:22.656Z,97973.53
2023-04-02T12:10:55.356Z,97969.22
2023-04-02T12:16:18.396Z,97982.69
2023-04-02T12:18:48.842Z,97985.56
2023-04-02T12:21:18.835Z,97990.88
2023-04-02T12:23:48.546Z,97992.06
2023-04-02T12:26:30.295Z,97989.59
2023-04-02T12:29:17.228Z,97990.53
2023-04-02T12:31:47.949Z,97998.50
2023-04-02T12:34:18.279Z,97999.22
2023-04-02T12:36:54.691Z,98006.59
2023-04-02T12:39:25.207Z,98014.25
2023-04-02T12:41:55.981Z,98011.25
2023-04-02T12:44:27.190Z,98007.03
2023-04-02T12:46:57.345Z,98013.16
2023-04-02T12:49:37.145Z,98018.09
2023-04-02T12:52:07.073Z,98023.41
2023-04-02T12:54:38.370Z,98024.22
2023-04-02T12:57:24.494Z,98028.19
2023-04-02T12:59:53.624Z,98032.63
2023-04-02T13:02:24.415Z,98027.25
2023-04-02T13:04:54.828Z,98031.31
2023-04-02T13:07:25.428Z,98032.59
2023-04-02T13:09:54.760Z,98045.28
2023-04-02T13:12:28.067Z,98039.88
2023-04-02T13:14:57.521Z,98049.81
2023-04-02T13:17:44.865Z,98040.88
2023-04-02T13:20:38.917Z,98049.66
2023-04-02T13:23:26.293Z,98050.25
2023-04-02T13:25:54.952Z,98055.94
2023-04-02T13:28:23.526Z,98057.16
2023-04-02T13:30:52.163Z,98049.31
2023-04-02T13:33:22.297Z,98061.25
2023-04-02T13:35:51.113Z,98066.34
2023-04-02T13:38:19.543Z,98068.25
2023-04-02T13:40:48.211Z,98065.34
2023-04-02T13:43:19.513Z,98077.72
2023-04-02T13:45:50.683Z,98075.63
2023-04-02T13:48:19.523Z,98075.88
2023-04-02T13:50:49.560Z,98083.63
2023-04-02T13:53:22.609Z,98082.00
2023-04-02T13:55:52.283Z,98088.09
2023-04-02T13:58:21.095Z,98090.69
2023-04-02T14:00:50.202Z,98092.16
2023-04-02T14:03:22.865Z,98090.56
2023-04-02T14:06:00.918Z,98104.03
2023-04-02T14:08:37.090Z,98098.91
2023-04-02T14:11:19.065Z,98095.31
2023-04-02T14:14:00.679Z,98104.84
2023-04-02T14:16:42.519Z,98108.13
2023-04-02T14:19:21.192Z,98112.78
2023-04-02T14:21:59.717Z,98118.50
2023-04-02T14:24:33.099Z,98120.28
2023-04-02T14:27:12.214Z,98116.66
2023-04-02T14:29:45.567Z,98128.84
2023-04-02T14:32:19.317Z,98134.47
2023-04-02T14:34:52.457Z,98127.31
2023-04-02T14:37:26.795Z,98123.34
2023-04-02T14:40:03.626Z,98135.09
2023-04-02T14:42:37.339Z,98136.94
2023-04-02T14:45:09.402Z,98139.75
2023-04-02T14:47:42.481Z,98134.72
2023-04-02T14:50:14.053Z,98148.84
2023-04-02T14:52:45.836Z,98143.84
2023-04-02T14:55:17.541Z,98152.72
2023-04-02T14:57:51.421Z,98149.59
2023-04-02T15:00:28.933Z,98148.47
2023-04-02T15:03:00.577Z,98157.75
2023-04-02T15:05:37.558Z,98153.88
2023-04-02T15:08:10.917Z,98152.47
2023-04-02T15:10:45.451Z,98159.81
2023-04-02T15:13:19.926Z,98155.81
2023-04-02T15:15:52.501Z,98161.91
2023-04-02T15:18:21.146Z,98164.69
2023-04-02T15:20:56.554Z,98172.22
2023-04-02T15:23:42.367Z,98169.63
2023-04-02T15:26:18.405Z,98174.88
2023-04-02T15:28:49.842Z,98182.69
2023-04-02T15:31:18.715Z,98181.00
2023-04-02T15:33:51.351Z,98186.88
2023-04-02T15:36:34.351Z,98188.38
2023-04-02T15:39:15.443Z,98194.88
2023-04-02T15:41:56.278Z,98198.09
2023-04-02T15:44:24.891Z,98201.59
2023-04-02T15:46:57.216Z,98210.59
2023-04-02T15:49:39.431Z,98204.69
2023-04-02T15:52:11.158Z,98222.09
2023-04-02T15:54:57.723Z,98218.28
2023-04-02T15:57:41.372Z,98219.22
2023-04-02T16:00:23.977Z,98218.69
2023-04-02T16:03:06.766Z,98213.31
2023-04-02T16:05:41.086Z,98222.72
2023-04-02T16:08:23.002Z,98224.28
2023-04-02T16:10:53.543Z,98232.94
2023-04-02T16:13:28.434Z,98233.00
2023-04-02T16:16:03.631Z,98240.34
2023-04-02T16:18:40.329Z,98240.88
2023-04-02T16:21:09.312Z,98239.91
2023-04-02T16:23:40.132Z,98247.44
2023-04-02T16:26:38.187Z,98252.81
2023-04-02T16:29:17.238Z,98257.63
2023-04-02T16:31:52.026Z,98255.28
2023-04-02T16:34:28.846Z,98259.38
2023-04-02T16:37:02.454Z,98262.38
2023-04-02T16:39:36.520Z,98266.56
2023-04-02T16:42:17.522Z,98260.97
2023-04-02T16:44:56.737Z,98271.53
2023-04-02T16:47:40.337Z,98273.91
2023-04-02T16:50:18.109Z,98270.13
2023-04-02T16:52:51.203Z,98280.53
2023-04-02T16:55:37.737Z,98284.66
2023-04-02T16:58:21.026Z,98278.63
2023-04-02T17:00:52.063Z,98288.19
2023-04-02T17:03:48.291Z,98290.84
2023-04-02T17:06:22.887Z,98290.94
2023-04-02T17:08:55.757Z,98296.97
2023-04-02T17:11:26.148Z,98308.00
2023-04-02T17:14:05.973Z,98301.81
2023-04-02T17:16:38.924Z,98307.31
2023-04-02T17:19:11.712Z,98308.19
2023-04-02T17:21:41.879Z,98299.03
2023-04-02T17:24:18.702Z,98317.78
2023-04-02T17:26:50.154Z,98320.41
2023-04-02T17:29:23.140Z,98323.97
2023-04-02T17:31:51.997Z,98322.75
2023-04-02T17:34:23.947Z,98327.88
2023-04-02T17:36:58.617Z,98334.25
2023-04-02T17:39:35.837Z,98336.47
2023-04-02T17:42:11.669Z,98334.22
2023-04-02T17:44:54.777Z,98337.91
2023-04-02T17:47:24.979Z,98336.66
2023-04-02T17:50:23.314Z,98346.78
2023-04-02T17:52:56.194Z,98341.63
2023-04-02T17:55:32.499Z,98359.38
2023-04-02T17:58:07.892Z,98354.53
2023-04-02T18:00:55.627Z,98363.88
2023-04-02T18:03:57.120Z,98362.22
2023-04-02T18:06:29.442Z,98364.97
2023-04-02T18:09:07.723Z,98367.66
2023-04-02T18:11:43.465Z,98368.00
2023-04-02T18:14:27.664Z,98367.94
2023-04-02T18:17:02.974Z,98370.75
2023-04-02T18:19:36.174Z,98366.72
2023-04-02T18:22:10.720Z,98371.56
2023-04-02T18:24:46.649Z,98372.22
2023-04-02T18:27:41.875Z,98378.50
2023-04-02T18:30:17.012Z,98388.03
2023-04-02T18:33:09.047Z,98382.03
2023-04-02T18:35:40.107Z,98382.16
2023-04-02T18:38:13.289Z,98390.38
2023-04-02T18:40:47.155Z,98390.50
2023-04-02T18:43:27.331Z,98393.81
2023-04-02T18:45:57.939Z,98392.78
2023-04-02T18:48:36.172Z,98398.97
2023-04-02T18:51:07.038Z,98399.25
2023-04-02T18:53:35.974Z,98397.19
2023-04-02T18:56:06.250Z,98401.34
2023-04-02T18:58:40.275Z,98399.66
2023-04-02T19:01:11.645Z,98395.09
2023-04-02T19:03:45.582Z,98400.50
2023-04-02T19:06:15.387Z,98414.25
2023-04-02T19:08:48.318Z,98406.50
2023-04-02T19:11:18.934Z,98410.38
2023-04-02T19:13:48.547Z,98408.13
2023-04-02T19:16:29.654Z,98424.13
2023-04-02T19:19:02.072Z,98425.56
2023-04-02T19:21:39.249Z,98423.72
2023-04-02T19:24:28.176Z,98427.47
2023-04-02T19:27:00.745Z,98430.91
2023-04-02T19:29:37.080Z,98423.94
2023-04-02T19:32:11.222Z,98427.06
2023-04-02T19:34:44.618Z,98432.06
2023-04-02T19:37:17.238Z,98437.28
2023-04-02T19:40:17.984Z,98433.81
2023-04-02T19:42:47.796Z,98432.69
2023-04-02T19:45:29.355Z,98432.25
2023-04-02T19:47:58.551Z,98445.31
2023-04-02T19:50:28.612Z,98436.75
2023-04-02T19:52:57.825Z,98437.75
2023-04-02T19:55:27.842Z,98439.47
2023-04-02T19:58:08.524Z,98439.97
2023-04-02T20:00:44.726Z,98442.19
2023-04-02T20:03:13.117Z,98443.84
2023-04-02T20:05:43.456Z,98436.38
2023-04-02T20:08:11.888Z,98442.50
2023-04-02T20:10:40.463Z,98448.28
2023-04-02T20:13:09.436Z,98452.38
2023-04-02T20:15:38.087Z,98451.00
2023-04-02T20:18:06.954Z,98457.56
2023-04-02T20:20:35.911Z,98456.19
2023-04-02T20:23:06.049Z,98454.44
2023-04-02T20:25:34.791Z,98461.38
2023-04-02T20:28:04.086Z,98473.41
2023-04-02T20:30:33.198Z,98464.59
2023-04-02T20:33:01.874Z,98471.22
2023-04-02T20:35:34.556Z,98470.13
2023-04-02T20:38:03.593Z,98477.53
2023-04-02T20:40:34.386Z,98473.81
2023-04-02T20:43:03.122Z,98488.97
2023-04-02T20:45:32.116Z,98478.31
2023-04-02T20:48:00.860Z,98490.34
2023-04-02T20:50:29.784Z,98481.31
2023-04-02T20:52:59.736Z,98482.63
2023-04-02T20:55:28.366Z,98494.19
2023-04-02T20:57:58.078Z,98486.19
2023-04-02T21:00:26.708Z,98491.19
2023-04-02T21:02:55.112Z,98490.91
2023-04-02T21:05:23.797Z,98495.84
2023-04-02T21:07:52.644Z,98501.59
2023-04-02T21:10:21.402Z,98508.97
2023-04-02T21:12:49.632Z,98497.22
2023-04-02T21:15:19.745Z,98504.81
2023-04-02T21:17:47.990Z,98502.19
2023-04-02T21:20:16.844Z,98506.50
2023-04-02T21:22:45.168Z,98502.16
2023-04-02T21:25:13.883Z,98498.88
2023-04-02T21:27:42.189Z,98511.75
2023-04-02T21:30:11.778Z,98506.78
2023-04-02T21:32:41.655Z,98505.09
2023-04-02T21:35:10.725Z,98514.47
2023-04-02T21:37:39.016Z,98514.47
2023-04-02T21:40:09.338Z,98510.06
2023-04-02T21:42:37.675Z,98511.47
2023-04-02T21:45:07.354Z,98506.78
2023-04-02T21:47:35.701Z,98517.22
2023-04-02T21:50:06.343Z,98516.59
2023-04-02T21:52:34.614Z,98518.31
2023-04-02T21:55:03.301Z,98527.06
2023-04-02T21:57:31.723Z,98525.41
2023-04-02T22:00:00.514Z,98535.53
2023-04-02T22:02:29.263Z,98536.28
2023-04-02T22:04:58.548Z,98540.19
2023-04-02T22:07:28.364Z,98527.88
2023-04-02T22:09:57.246Z,98530.88
2023-04-02T22:12:25.807Z,98535.75
2023-04-02T22:14:54.386Z,98547.22
2023-04-02T22:17:22.925Z,98547.75
2023-04-02T22:19:51.450Z,98545.59
2023-04-02T22:22:19.720Z,98554.31
2023-04-02T22:24:49.742Z,98547.00
2023-04-02T22:27:18.211Z,98551.53
2023-04-02T22:29:46.838Z,98560.31
2023-04-02T22:32:15.336Z,98558.41
2023-04-02T22:34:45.728Z,98560.88
2023-04-02T22:37:14.060Z,98566.88
2023-04-02T22:39:42.707Z,98566.34
2023-04-02T22:42:12.413Z,98563.41
2023-04-02T22:44:41.029Z,98569.06
2023-04-02T22:47:09.244Z,98571.19
2023-04-02T22:49:38.088Z,98566.03
2023-04-02T22:52:07.033Z,98570.13
2023-04-02T22:54:35.794Z,98570.94
2023-04-02T22:57:04.025Z,98572.00
2023-04-02T22:59:34.150Z,98576.78
2023-04-02T23:02:02.542Z,98572.81
2023-04-02T23:04:31.395Z,98567.38
2023-04-02T23:06:59.574Z,98581.63
2023-04-02T23:09:28.572Z,98583.81
2023-04-02T23:11:56.927Z,98575.03
2023-04-02T23:14:25.573Z,98572.84
2023-04-02T23:16:55.715Z,98564.16
2023-04-02T23:19:24.446Z,98571.19
2023-04-02T23:21:52.842Z,98577.19
2023-04-02T23:24:21.733Z,98567.63
2023-04-02T23:26:50.059Z,98572.53
2023-04-02T23:29:18.654Z,98577.09
2023-04-02T23:31:47.367Z,98575.53
2023-04-02T23:34:17.486Z,98577.00
2023-04-02T23:36:45.824Z,98587.56
2023-04-02T23:39:15.079Z,98577.19
2023-04-02T23:41:44.407Z,98578.03
2023-04-02T23:44:12.996Z,98580.44
2023-04-02T23:46:41.459Z,98575.53
2023-04-02T23:49:12.598Z,98584.91
2023-04-02T23:51:42.397Z,98582.19
2023-04-02T23:54:13.087Z,98580.00
2023-04-02T23:56:42.125Z,98582.19
2023-04-02T23:59:10.819Z,98585.09
